| time (UTC) | temp C | wind direction | speed KPH | gust KPH | rain 1hr cm | rain 24hr cm | rain mn cm | humidity % | barometer mb |
| 20260508030059 | 7 | 253 | 0.0 | 0.0 | 0.00 | 0.05 | 0.00 | 93 | 1018.3 |
| 20260508024555 | 7 | 253 | 0.0 | 0.0 | 0.00 | 0.05 | 0.00 | 93 | 1018.2 |
| 20260508023053 | 7 | 253 | 0.0 | 0.0 | 0.00 | 0.05 | 0.00 | 93 | 1018.0 |
| 20260508021559 | 7 | 253 | 0.0 | 0.0 | 0.00 | 0.05 | 0.00 | 93 | 1017.9 |
| 20260508020057 | 7 | 253 | 0.0 | 0.0 | 0.00 | 0.05 | 0.00 | 93 | 1017.9 |
| 20260508014550 | 8 | 253 | 0.0 | 0.0 | 0.00 | 0.13 | 0.00 | 93 | 1017.9 |
| 20260508013056 | 8 | 253 | 0.0 | 0.0 | 0.00 | 0.13 | 0.00 | 93 | 1017.8 |
| 20260508011552 | 8 | 253 | 0.0 | 0.0 | 0.00 | 0.13 | 0.00 | 93 | 1017.6 |
| 20260508010046 | 8 | 253 | 0.0 | 0.0 | 0.00 | 0.13 | 0.00 | 93 | 1017.9 |
| 20260508004545 | 8 | 253 | 0.0 | 0.0 | 0.00 | 0.23 | 0.00 | 92 | 1017.8 |
| 20260508003044 | 8 | 253 | 0.0 | 0.0 | 0.00 | 0.23 | 0.00 | 92 | 1017.9 |
| 20260508001606 | 8 | 253 | 0.0 | 0.0 | 0.00 | 0.23 | 0.00 | 92 | 1017.8 |
| 20260508000043 | 8 | 253 | 0.0 | 0.0 | 0.00 | 0.23 | 0.00 | 91 | 1018.0 |
| 20260507234539 | 9 | 253 | 0.0 | 0.0 | 0.00 | 0.25 | 0.00 | 92 | 1018.0 |
| 20260507233037 | 9 | 253 | 0.0 | 0.0 | 0.00 | 0.25 | 0.00 | 91 | 1018.1 |
| 20260507231537 | 9 | 253 | 0.0 | 0.0 | 0.00 | 0.25 | 0.00 | 90 | 1018.2 |
| 20260507230033 | 10 | 253 | 0.0 | 0.0 | 0.00 | 0.25 | 0.00 | 91 | 1018.4 |
| 20260507224540 | 10 | 253 | 0.0 | 0.0 | 0.00 | 0.30 | 0.00 | 91 | 1018.4 |
| 20260507223025 | 10 | 253 | 0.0 | 0.0 | 0.00 | 0.30 | 0.00 | 91 | 1018.5 |
| 20260507221522 | 10 | 253 | 0.0 | 0.0 | 0.00 | 0.30 | 0.00 | 91 | 1018.5 |
| 20260507220030 | 10 | 253 | 0.0 | 0.0 | 0.00 | 0.30 | 0.00 | 91 | 1018.4 |
| 20260507214517 | 10 | 253 | 0.0 | 0.0 | 0.00 | 0.30 | 0.30 | 91 | 1018.3 |
| 20260507213015 | 10 | 253 | 0.0 | 0.0 | 0.00 | 0.30 | 0.30 | 90 | 1018.3 |
| 20260507211514 | 10 | 253 | 0.0 | 0.0 | 0.00 | 0.30 | 0.30 | 89 | 1018.3 |
| 20260507210014 | 10 | 253 | 0.0 | 0.0 | 0.00 | 0.30 | 0.30 | 88 | 1018.3 |
| 20260507204512 | 10 | 253 | 0.0 | 0.0 | 0.00 | 0.30 | 0.30 | 88 | 1018.3 |
| 20260507203011 | 10 | 254 | 0.0 | 0.0 | 0.00 | 0.30 | 0.30 | 88 | 1018.2 |
| 20260507201510 | 11 | 253 | 0.0 | 0.0 | 0.00 | 0.30 | 0.30 | 87 | 1018.1 |
| 20260507200011 | 11 | 254 | 0.0 | 0.0 | 0.00 | 0.30 | 0.30 | 85 | 1017.9 |
| 20260507194508 | 11 | 253 | 0.0 | 0.0 | 0.00 | 0.36 | 0.30 | 84 | 1017.9 |
| 20260507193007 | 12 | 253 | 0.0 | 0.0 | 0.00 | 0.36 | 0.30 | 82 | 1017.8 |
| 20260507191506 | 12 | 253 | 0.0 | 1.6 | 0.00 | 0.36 | 0.30 | 81 | 1017.6 |
| 20260507190008 | 13 | 253 | 0.0 | 0.0 | 0.00 | 0.36 | 0.30 | 81 | 1017.4 |
| 20260507184506 | 13 | 253 | 0.0 | 0.0 | 0.00 | 0.46 | 0.30 | 79 | 1017.3 |
| 20260507183006 | 14 | 253 | 0.0 | 0.0 | 0.00 | 0.46 | 0.30 | 77 | 1017.2 |
| 20260507181504 | 15 | 253 | 0.0 | 0.0 | 0.00 | 0.46 | 0.30 | 74 | 1017.2 |
| 20260507180005 | 15 | 253 | 0.0 | 1.6 | 0.00 | 0.46 | 0.30 | 72 | 1017.2 |
| 20260507174504 | 15 | 252 | 0.0 | 1.6 | 0.00 | 0.58 | 0.30 | 70 | 1016.9 |
| 20260507173003 | 16 | 250 | 0.0 | 1.6 | 0.00 | 0.58 | 0.30 | 70 | 1016.7 |
| 20260507171507 | 16 | 124 | 0.0 | 1.6 | 0.00 | 0.58 | 0.30 | 70 | 1017.0 |
| 20260507170002 | 16 | 120 | 0.0 | 1.6 | 0.00 | 0.58 | 0.30 | 68 | 1016.7 |
| 20260507164501 | 16 | 96 | 0.0 | 4.8 | 0.00 | 0.71 | 0.30 | 67 | 1016.6 |
| 20260507163100 | 17 | 99 | 0.0 | 1.6 | 0.00 | 0.71 | 0.30 | 67 | 1016.5 |
| 20260507163001 | 17 | 94 | 0.0 | 1.6 | 0.00 | 0.71 | 0.30 | 66 | 1016.6 |
| 20260507161601 | 16 | 94 | 1.6 | 3.2 | 0.00 | 0.71 | 0.30 | 65 | 1016.7 |
| 20260507160100 | 17 | 75 | 0.0 | 1.6 | 0.00 | 0.71 | 0.30 | 67 | 1016.7 |
| 20260507154604 | 17 | 75 | 0.0 | 3.2 | 0.00 | 0.84 | 0.30 | 65 | 1016.7 |
| 20260507153102 | 17 | 82 | 0.0 | 3.2 | 0.00 | 0.84 | 0.30 | 65 | 1016.7 |
| 20260507151558 | 18 | 229 | 0.0 | 1.6 | 0.00 | 0.84 | 0.30 | 63 | 1016.7 |
| 20260507150058 | 18 | 93 | 0.0 | 3.2 | 0.00 | 0.84 | 0.30 | 63 | 1016.9 |
| 20260507144557 | 17 | 78 | 0.0 | 3.2 | 0.00 | 0.89 | 0.30 | 66 | 1016.9 |
| 20260507143056 | 18 | 75 | 0.0 | 3.2 | 0.00 | 0.89 | 0.30 | 65 | 1016.8 |
| 20260507141555 | 18 | 86 | 1.6 | 4.8 | 0.00 | 0.89 | 0.30 | 65 | 1016.9 |
| 20260507140054 | 18 | 229 | 0.0 | 1.6 | 0.00 | 0.89 | 0.30 | 69 | 1016.9 |
| 20260507134555 | 18 | 238 | 0.0 | 1.6 | 0.00 | 0.99 | 0.30 | 70 | 1016.9 |
| 20260507133055 | 16 | 95 | 0.0 | 1.6 | 0.00 | 0.99 | 0.30 | 74 | 1017.2 |
| 20260507131600 | 15 | 90 | 0.0 | 6.4 | 0.00 | 0.99 | 0.30 | 76 | 1017.2 |
| 20260507130105 | 15 | 86 | 0.0 | 3.2 | 0.00 | 0.99 | 0.30 | 76 | 1017.3 |
| 20260507124553 | 15 | 87 | 0.0 | 4.8 | 0.00 | 1.04 | 0.30 | 75 | 1017.3 |
| 20260507123050 | 16 | 72 | 0.0 | 3.2 | 0.00 | 1.04 | 0.30 | 74 | 1017.2 |
| 20260507121559 | 17 | 219 | 0.0 | 8.0 | 0.00 | 1.04 | 0.30 | 66 | 1017.1 |
| 20260507120048 | 17 | 246 | 0.0 | 0.0 | 0.00 | 1.04 | 0.30 | 61 | 1017.1 |
| 20260507114600 | 17 | 264 | 0.0 | 4.8 | 0.00 | 1.27 | 0.30 | 62 | 1017.1 |
| 20260507113045 | 16 | 243 | 0.0 | 4.8 | 0.00 | 1.27 | 0.30 | 64 | 1017.2 |
| 20260507111545 | 16 | 247 | 3.2 | 9.7 | 0.00 | 1.27 | 0.30 | 63 | 1017.2 |
| 20260507110043 | 17 | 245 | 4.8 | 11.3 | 0.00 | 1.27 | 0.30 | 63 | 1017.3 |
| 20260507104540 | 16 | 239 | 0.0 | 6.4 | 0.00 | 1.30 | 0.30 | 68 | 1017.5 |
| 20260507103043 | 16 | 250 | 0.0 | 4.8 | 0.00 | 1.30 | 0.30 | 68 | 1017.5 |
| 20260507101537 | 15 | 255 | 1.6 | 6.4 | 0.00 | 1.30 | 0.30 | 70 | 1017.6 |
| 20260507100039 | 15 | 237 | 1.6 | 6.4 | 0.00 | 1.30 | 0.30 | 71 | 1017.7 |
| 20260507094537 | 14 | 269 | 3.2 | 11.3 | 0.00 | 1.30 | 0.30 | 72 | 1017.6 |
| 20260507093029 | 13 | 254 | 3.2 | 11.3 | 0.00 | 1.30 | 0.30 | 77 | 1017.7 |
| 20260507091525 | 13 | 259 | 0.0 | 6.4 | 0.00 | 1.30 | 0.30 | 82 | 1017.7 |
| 20260507090023 | 12 | 227 | 1.6 | 6.4 | 0.00 | 1.30 | 0.30 | 82 | 1017.4 |
| 20260507084521 | 12 | 216 | 1.6 | 6.4 | 0.00 | 1.30 | 0.30 | 85 | 1017.4 |
| 20260507083019 | 12 | 238 | 1.6 | 6.4 | 0.00 | 1.30 | 0.30 | 86 | 1017.4 |
| 20260507081533 | 11 | 231 | 3.2 | 9.7 | 0.00 | 1.30 | 0.30 | 87 | 1017.4 |
| 20260507080013 | 11 | 240 | 0.0 | 4.8 | 0.00 | 1.30 | 0.30 | 90 | 1017.3 |
| 20260507074522 | 11 | 240 | 1.6 | 8.0 | 0.00 | 1.30 | 0.30 | 90 | 1017.3 |
| 20260507073007 | 11 | 248 | 1.6 | 8.0 | 0.00 | 1.30 | 0.30 | 90 | 1017.2 |
| 20260507071504 | 10 | 239 | 1.6 | 6.4 | 0.00 | 1.30 | 0.30 | 90 | 1017.1 |
| 20260507070004 | 10 | 240 | 3.2 | 6.4 | 0.00 | 1.30 | 0.30 | 91 | 1017.0 |
| 20260507064600 | 10 | 253 | 3.2 | 8.0 | 0.00 | 1.30 | 0.30 | 91 | 1016.8 |
| 20260507063058 | 10 | 252 | 0.0 | 6.4 | 0.00 | 1.30 | 0.30 | 92 | 1016.9 |
| 20260507061554 | 10 | 251 | 1.6 | 4.8 | 0.03 | 1.30 | 0.30 | 92 | 1016.7 |
| 20260507060053 | 10 | 246 | 0.0 | 4.8 | 0.03 | 1.30 | 0.30 | 92 | 1016.6 |
| 20260507054628 | 10 | 250 | 0.0 | 6.4 | 0.03 | 1.30 | 0.30 | 92 | 1016.5 |
| 20260507053052 | 10 | 248 | 1.6 | 6.4 | 0.03 | 1.30 | 0.30 | 93 | 1016.3 |
| 20260507051547 | 10 | 240 | 1.6 | 8.0 | 0.00 | 1.27 | 0.28 | 92 | 1016.1 |
| 20260507050053 | 10 | 248 | 1.6 | 6.4 | 0.00 | 1.27 | 0.28 | 92 | 1016.1 |
| 20260507044549 | 10 | 252 | 1.6 | 8.0 | 0.00 | 1.27 | 0.28 | 92 | 1015.6 |
| 20260507043045 | 10 | 253 | 1.6 | 6.4 | 0.00 | 1.27 | 0.28 | 92 | 1015.6 |
| 20260507041545 | 10 | 236 | 1.6 | 8.0 | 0.00 | 1.27 | 0.28 | 93 | 1015.5 |
| 20260507040044 | 9 | 241 | 3.2 | 6.4 | 0.03 | 1.27 | 0.28 | 93 | 1015.4 |
| 20260507034542 | 9 | 259 | 1.6 | 8.0 | 0.03 | 1.27 | 0.28 | 93 | 1015.4 |
| 20260507033044 | 9 | 253 | 1.6 | 8.0 | 0.03 | 1.27 | 0.28 | 93 | 1015.3 |
| 20260507031546 | 9 | 242 | 3.2 | 8.0 | 0.03 | 1.27 | 0.28 | 93 | 1015.2 |